createdAt,value
2023-03-03T00:25:00.804Z,41.50
2023-03-03T00:30:24.325Z,39.00
2023-03-03T00:35:30.853Z,43.27
2023-03-03T00:40:54.459Z,37.47
2023-03-03T00:53:43.950Z,35.57
2023-03-03T01:05:49.024Z,38.53
2023-03-03T01:29:52.828Z,41.37
2023-03-03T01:34:57.239Z,40.90
2023-03-03T01:39:56.444Z,44.73
2023-03-03T01:45:21.267Z,42.03
2023-03-03T01:50:44.244Z,40.40
2023-03-03T02:29:06.518Z,43.13
2023-03-03T02:34:40.391Z,41.73
2023-03-03T02:47:15.765Z,43.40
2023-03-03T02:54:04.640Z,43.27
2023-03-03T03:07:16.143Z,44.37
2023-03-03T03:13:51.815Z,44.07
2023-03-03T03:53:58.844Z,45.67
2023-03-03T04:02:09.596Z,42.67
2023-03-03T04:06:11.703Z,46.93
2023-03-03T04:51:59.662Z,43.47
2023-03-03T04:57:48.351Z,39.78
2023-03-03T05:36:26.615Z,45.03
2023-03-03T05:42:15.432Z,48.85
2023-03-03T05:47:31.285Z,52.23
2023-03-03T05:53:04.796Z,50.77
2023-03-03T05:57:59.111Z,48.93
2023-03-03T06:02:53.760Z,53.63
2023-03-03T06:07:47.086Z,49.83
2023-03-03T06:12:42.219Z,58.63
2023-03-03T06:17:35.500Z,71.17
2023-03-03T06:22:30.092Z,59.23
2023-03-03T06:27:23.304Z,55.80
2023-03-03T06:32:16.498Z,54.10
2023-03-03T06:37:09.706Z,66.70
2023-03-03T06:42:04.290Z,54.43
2023-03-03T06:46:58.957Z,47.73
2023-03-03T06:51:52.396Z,47.53
2023-03-03T06:56:47.002Z,52.10
2023-03-03T07:01:42.070Z,48.40
2023-03-03T07:06:35.364Z,46.33
2023-03-03T07:11:28.508Z,44.63
2023-03-03T07:16:26.374Z,45.70
2023-03-03T07:21:23.142Z,52.10
2023-03-03T07:26:18.920Z,52.97
2023-03-03T07:31:28.583Z,50.07
2023-03-03T07:36:30.339Z,44.07
2023-03-03T07:41:24.620Z,42.40
2023-03-03T07:46:33.622Z,39.15
2023-03-03T07:51:31.916Z,39.00
2023-03-03T07:56:31.201Z,42.17
2023-03-03T08:01:42.642Z,48.38
2023-03-03T08:06:45.629Z,40.50
2023-03-03T08:11:47.943Z,42.25
2023-03-03T08:16:41.691Z,41.65
2023-03-03T08:21:37.089Z,41.15
2023-03-03T08:26:31.610Z,46.80
2023-03-03T08:31:39.898Z,43.45
2023-03-03T08:36:34.929Z,43.55
2023-03-03T08:41:28.511Z,41.15
2023-03-03T08:46:23.354Z,39.25
2023-03-03T08:51:16.690Z,43.72
2023-03-03T08:56:10.604Z,40.40
2023-03-03T09:01:04.397Z,42.25
2023-03-03T09:05:59.161Z,41.20
2023-03-03T09:10:52.458Z,37.88
2023-03-03T09:15:45.872Z,36.90
2023-03-03T09:20:40.502Z,41.83
2023-03-03T09:25:37.822Z,38.90
2023-03-03T09:30:44.334Z,38.05
2023-03-03T09:35:41.352Z,42.40
2023-03-03T09:40:54.063Z,38.47
2023-03-03T09:46:02.271Z,37.00
2023-03-03T09:51:06.917Z,36.88
2023-03-03T09:56:13.709Z,37.03
2023-03-03T10:01:25.489Z,38.15
2023-03-03T10:06:26.629Z,38.30
2023-03-03T10:11:26.179Z,36.40
2023-03-03T10:16:37.563Z,84.78
2023-03-03T10:21:37.577Z,38.45
2023-03-03T10:26:57.919Z,39.10
2023-03-03T10:32:25.912Z,44.10
2023-03-03T10:37:27.595Z,41.67
2023-03-03T10:42:45.094Z,38.05
2023-03-03T10:48:04.222Z,39.40
2023-03-03T10:53:13.618Z,39.45
2023-03-03T10:58:26.729Z,38.58
2023-03-03T11:03:57.800Z,38.72
2023-03-03T11:08:56.749Z,39.47
2023-03-03T11:13:57.893Z,45.78
2023-03-03T11:19:02.393Z,36.00
2023-03-03T11:24:03.421Z,38.63
2023-03-03T11:29:17.356Z,36.78
2023-03-03T11:34:25.601Z,34.65
2023-03-03T11:39:21.898Z,39.60
2023-03-03T11:44:25.653Z,38.70
2023-03-03T11:49:26.572Z,36.50
2023-03-03T11:54:25.136Z,35.33
2023-03-03T11:59:36.957Z,42.20
2023-03-03T12:04:36.103Z,40.70
2023-03-03T12:09:41.488Z,36.78
2023-03-03T12:14:53.619Z,40.13
2023-03-03T12:19:54.985Z,38.85
2023-03-03T12:25:02.504Z,44.75
2023-03-03T12:30:07.658Z,48.08
2023-03-03T12:35:07.760Z,49.53
2023-03-03T12:40:10.046Z,51.92
2023-03-03T12:45:13.346Z,46.13
2023-03-03T12:50:37.036Z,57.35
2023-03-03T12:55:40.326Z,49.83
2023-03-03T13:00:45.191Z,55.97
2023-03-03T13:05:52.975Z,55.53
2023-03-03T13:10:55.819Z,51.65
2023-03-03T13:16:06.026Z,55.45
2023-03-03T13:21:07.028Z,53.60
2023-03-03T13:26:04.586Z,63.75
2023-03-03T13:31:04.401Z,50.22
2023-03-03T13:36:00.963Z,66.78
2023-03-03T13:41:05.588Z,63.78
2023-03-03T13:46:09.618Z,48.97
2023-03-03T13:51:11.251Z,67.43
2023-03-03T13:56:15.942Z,50.78
2023-03-03T14:01:19.826Z,59.45
2023-03-03T14:06:16.374Z,43.17
2023-03-03T14:11:13.122Z,54.10
2023-03-03T14:16:10.839Z,51.05
2023-03-03T14:21:12.435Z,61.08
2023-03-03T14:26:13.433Z,72.60
2023-03-03T14:31:18.613Z,77.22
2023-03-03T14:36:16.373Z,57.15
2023-03-03T14:41:17.025Z,52.15
2023-03-03T14:46:33.553Z,59.22
2023-03-03T14:51:31.221Z,69.95
2023-03-03T14:56:27.374Z,57.50
2023-03-03T15:01:31.600Z,55.88
2023-03-03T15:06:37.315Z,56.10
2023-03-03T15:11:34.589Z,50.60
2023-03-03T15:16:34.282Z,48.78
2023-03-03T15:21:34.295Z,47.13
2023-03-03T15:26:40.303Z,46.47
2023-03-03T15:31:45.791Z,48.55
2023-03-03T15:36:45.722Z,51.53
2023-03-03T15:41:44.791Z,51.13
2023-03-03T15:46:52.969Z,57.78
2023-03-03T15:52:12.550Z,56.20
2023-03-03T15:57:13.299Z,74.13
2023-03-03T16:02:17.251Z,57.33
2023-03-03T16:07:21.946Z,51.30
2023-03-03T16:12:24.036Z,54.75
2023-03-03T16:17:36.627Z,55.25
2023-03-03T16:22:48.742Z,53.78
2023-03-03T16:27:47.808Z,61.47
2023-03-03T16:32:47.739Z,65.38
2023-03-03T16:37:51.872Z,63.40
2023-03-03T16:42:45.150Z,82.85
2023-03-03T16:47:54.781Z,84.85
2023-03-03T16:52:59.104Z,76.88
2023-03-03T16:58:09.954Z,103.90
2023-03-03T17:03:25.499Z,127.25
2023-03-03T17:08:49.441Z,106.65
2023-03-03T17:13:58.535Z,80.88
2023-03-03T17:19:06.881Z,85.63
2023-03-03T17:24:09.799Z,100.28
2023-03-03T17:29:21.965Z,74.68
2023-03-03T17:34:32.529Z,70.75
2023-03-03T17:40:03.915Z,62.22
2023-03-03T17:45:13.697Z,72.65
2023-03-03T17:50:26.421Z,73.85
2023-03-03T17:55:43.051Z,77.18
2023-03-03T18:00:57.164Z,74.30
2023-03-03T18:06:10.557Z,72.97
2023-03-03T18:11:21.453Z,64.30
2023-03-03T18:16:26.626Z,62.47
2023-03-03T18:21:26.144Z,75.18
2023-03-03T18:26:39.089Z,59.10
2023-03-03T18:31:48.293Z,59.53
2023-03-03T18:36:55.051Z,61.90
2023-03-03T18:42:10.293Z,66.43
2023-03-03T18:47:04.106Z,64.80
2023-03-03T18:52:23.046Z,61.15
2023-03-03T18:57:21.850Z,62.03
2023-03-03T19:02:30.352Z,65.90
2023-03-03T19:07:37.073Z,60.22
2023-03-03T19:12:59.255Z,58.97
2023-03-03T19:18:26.825Z,58.10
2023-03-03T19:23:30.117Z,61.53
2023-03-03T19:28:39.670Z,63.30
2023-03-03T19:33:56.907Z,66.30
2023-03-03T19:39:20.068Z,69.43
2023-03-03T19:44:34.386Z,64.83
2023-03-03T19:50:09.307Z,64.90
2023-03-03T19:55:32.452Z,63.00
2023-03-03T20:00:38.550Z,62.40
2023-03-03T20:05:46.572Z,63.93
2023-03-03T20:10:51.976Z,65.60
2023-03-03T20:15:56.661Z,71.93
2023-03-03T20:21:06.270Z,69.13
2023-03-03T20:26:04.528Z,66.57
2023-03-03T20:31:12.541Z,77.10
2023-03-03T20:36:19.450Z,69.47
2023-03-03T20:41:24.465Z,68.67
2023-03-03T20:46:29.236Z,83.10
2023-03-03T20:51:31.561Z,70.43
2023-03-03T20:56:32.087Z,76.90
2023-03-03T21:01:41.774Z,69.60
2023-03-03T22:35:25.091Z,71.73
2023-03-03T23:10:07.750Z,67.10
2023-03-03T23:30:05.773Z,64.47
2023-03-03T23:35:09.418Z,65.03
2023-03-03T23:40:18.811Z,66.17
